createdAt,value
2019-05-17T00:01:49.485Z,36.95
2019-05-17T00:04:20.634Z,34.73
2019-05-17T00:06:51.632Z,35.85
2019-05-17T00:09:22.578Z,34.23
2019-05-17T00:11:53.567Z,34.48
2019-05-17T00:14:24.518Z,33.67
2019-05-17T00:16:57.326Z,36.30
2019-05-17T00:19:28.163Z,32.90
2019-05-17T00:21:59.135Z,33.90
2019-05-17T00:24:30.077Z,34.40
2019-05-17T00:27:01.054Z,36.77
2019-05-17T00:29:31.998Z,36.28
2019-05-17T00:32:02.986Z,38.65
2019-05-17T00:34:33.925Z,40.35
2019-05-17T00:37:07.002Z,39.78
2019-05-17T00:39:37.553Z,32.98
2019-05-17T00:42:08.531Z,36.65
2019-05-17T00:44:39.502Z,36.73
2019-05-17T00:47:10.985Z,33.00
2019-05-17T00:49:42.036Z,36.83
2019-05-17T00:52:12.975Z,35.68
2019-05-17T00:54:43.950Z,35.60
2019-05-17T00:57:16.625Z,34.80
2019-05-17T00:59:47.750Z,36.05
2019-05-17T01:02:18.692Z,36.70
2019-05-17T01:04:49.671Z,37.03
2019-05-17T01:07:20.613Z,38.50
2019-05-17T01:09:52.017Z,36.15
2019-05-17T01:12:22.965Z,36.08
2019-05-17T01:14:53.948Z,36.45
2019-05-17T01:17:26.945Z,36.20
2019-05-17T01:19:57.626Z,36.17
2019-05-17T01:22:28.579Z,34.80
2019-05-17T01:24:59.570Z,33.10
2019-05-17T01:27:30.525Z,34.43
2019-05-17T01:30:01.586Z,34.67
2019-05-17T01:32:33.840Z,38.67
2019-05-17T01:35:07.295Z,36.55
2019-05-17T01:37:38.590Z,35.80
2019-05-17T01:40:09.846Z,36.48
2019-05-17T01:42:40.931Z,36.58
2019-05-17T01:45:12.318Z,32.88
2019-05-17T01:47:43.297Z,39.92
2019-05-17T01:50:14.550Z,34.98
2019-05-17T01:52:46.199Z,37.83
2019-05-17T01:55:17.534Z,34.60
2019-05-17T01:57:48.596Z,36.68
2019-05-17T02:00:20.033Z,32.93
2019-05-17T02:02:52.582Z,34.83
2019-05-17T02:05:23.549Z,33.83
2019-05-17T02:07:56.828Z,33.83
2019-05-17T02:10:27.247Z,29.92
2019-05-17T02:12:58.303Z,31.10
2019-05-17T02:15:29.256Z,34.08
2019-05-17T02:18:01.295Z,31.90
2019-05-17T02:20:32.250Z,33.53
2019-05-17T02:23:03.226Z,31.25
2019-05-17T02:25:36.676Z,29.50
2019-05-17T02:28:07.999Z,31.60
2019-05-17T02:30:39.381Z,30.17
2019-05-17T02:33:12.616Z,29.57
2019-05-17T02:35:43.203Z,29.48
2019-05-17T02:38:14.174Z,29.77
2019-05-17T02:40:45.193Z,28.98
2019-05-17T02:43:16.131Z,28.32
2019-05-17T02:45:47.115Z,29.00
2019-05-17T02:48:18.057Z,28.27
2019-05-17T02:50:49.036Z,29.70
2019-05-17T02:53:22.877Z,29.35
2019-05-17T02:55:53.895Z,29.85
2019-05-17T02:58:25.230Z,30.45
2019-05-17T03:00:56.211Z,30.80
2019-05-17T03:03:27.153Z,29.77
2019-05-17T03:05:58.186Z,32.35
2019-05-17T03:08:29.160Z,31.50
2019-05-17T03:11:03.203Z,30.57
2019-05-17T03:13:33.147Z,32.95
2019-05-17T03:16:04.338Z,31.82
2019-05-17T03:18:35.315Z,32.00
2019-05-17T03:21:06.295Z,31.55
2019-05-17T03:23:37.325Z,31.95
2019-05-17T03:26:08.286Z,29.82
2019-05-17T03:28:42.456Z,29.72
2019-05-17T03:31:17.071Z,31.95
2019-05-17T03:33:46.192Z,31.23
2019-05-17T03:36:18.605Z,30.65
2019-05-17T03:38:49.674Z,31.45
2019-05-17T03:41:27.862Z,30.92
2019-05-17T03:43:54.339Z,29.55
2019-05-17T03:46:25.301Z,29.60
2019-05-17T03:48:56.332Z,29.15
2019-05-17T03:51:28.852Z,27.67
2019-05-17T03:54:02.409Z,27.60
2019-05-17T03:56:33.135Z,30.62
2019-05-17T03:59:04.416Z,33.25
2019-05-17T04:01:35.769Z,36.00
2019-05-17T04:04:06.745Z,37.73
2019-05-17T04:06:37.759Z,39.33
2019-05-17T04:09:09.542Z,37.67
2019-05-17T04:11:42.913Z,38.17
2019-05-17T04:14:13.886Z,46.08
2019-05-17T04:16:45.312Z,39.30
2019-05-17T04:19:16.346Z,40.28
2019-05-17T04:21:47.388Z,34.90
2019-05-17T04:24:18.392Z,33.92
2019-05-17T04:26:52.029Z,33.85
2019-05-17T04:29:22.780Z,34.33
2019-05-17T04:31:54.983Z,36.10
2019-05-17T04:34:26.021Z,30.32
2019-05-17T04:36:56.996Z,33.88
2019-05-17T04:39:27.942Z,35.25
2019-05-17T04:41:58.924Z,36.00
2019-05-17T04:44:32.074Z,36.77
2019-05-17T04:47:03.293Z,34.35
2019-05-17T04:49:34.607Z,33.98
2019-05-17T04:52:05.651Z,36.05
2019-05-17T04:54:36.595Z,34.05
2019-05-17T04:57:07.568Z,35.33
2019-05-17T04:59:38.504Z,38.35
2019-05-17T05:02:12.916Z,39.60
2019-05-17T05:04:43.540Z,43.68
2019-05-17T05:07:14.884Z,41.98
2019-05-17T05:09:45.905Z,39.80
2019-05-17T05:12:16.875Z,39.18
2019-05-17T05:14:47.823Z,41.05
2019-05-17T05:17:22.193Z,38.60
2019-05-17T05:19:53.008Z,40.30
2019-05-17T05:22:24.212Z,39.73
2019-05-17T05:24:55.163Z,39.90
2019-05-17T05:27:26.135Z,42.00
2019-05-17T05:29:57.080Z,40.85
2019-05-17T05:32:28.067Z,39.10
2019-05-17T05:34:59.063Z,40.23
2019-05-17T05:37:32.989Z,40.15
2019-05-17T05:40:02.721Z,36.53
2019-05-17T05:42:33.740Z,37.20
2019-05-17T05:45:05.484Z,37.20
2019-05-17T05:47:36.465Z,34.30
2019-05-17T05:50:08.538Z,37.90
2019-05-17T05:52:41.901Z,35.33
2019-05-17T05:55:12.665Z,36.85
2019-05-17T05:57:43.786Z,35.48
2019-05-17T06:00:16.067Z,37.73
2019-05-17T06:02:47.119Z,33.92
2019-05-17T06:05:21.767Z,33.45
2019-05-17T06:07:52.272Z,34.10
2019-05-17T06:10:23.703Z,29.27
2019-05-17T06:12:54.774Z,45.05
2019-05-17T06:15:25.952Z,31.45
2019-05-17T06:17:56.984Z,31.10
2019-05-17T06:20:27.972Z,28.50
2019-05-17T06:22:58.910Z,30.68
2019-05-17T06:25:33.779Z,29.48
2019-05-17T06:28:03.782Z,28.47
2019-05-17T06:30:34.764Z,27.62
2019-05-17T06:33:05.941Z,27.87
2019-05-17T06:35:36.884Z,25.90
2019-05-17T06:38:07.855Z,23.07
2019-05-17T06:40:38.807Z,22.65
2019-05-17T06:43:12.786Z,23.42
2019-05-17T06:45:42.750Z,23.55
2019-05-17T06:48:13.733Z,21.93
2019-05-17T06:50:44.702Z,21.15
2019-05-17T06:53:15.759Z,21.77
2019-05-17T06:55:46.706Z,20.92
2019-05-17T06:58:17.694Z,21.12
2019-05-17T07:00:49.762Z,20.02
2019-05-17T07:03:21.006Z,19.45
2019-05-17T07:05:56.462Z,20.70
2019-05-17T07:08:29.484Z,22.10
2019-05-17T07:11:00.092Z,18.35
2019-05-17T07:13:31.129Z,17.25
2019-05-17T07:16:02.118Z,18.40
2019-05-17T07:18:33.066Z,17.67
2019-05-17T07:21:04.049Z,17.12
2019-05-17T07:23:35.193Z,18.45
2019-05-17T07:26:09.069Z,16.25
2019-05-17T07:28:40.403Z,16.25
2019-05-17T07:31:11.689Z,14.93
2019-05-17T07:33:42.643Z,14.47
2019-05-17T07:36:13.617Z,14.95
2019-05-17T07:38:44.565Z,16.50
2019-05-17T07:41:15.547Z,13.35
2019-05-17T07:43:46.490Z,14.75
2019-05-17T07:46:17.468Z,13.95
2019-05-17T07:48:49.717Z,13.78
2019-05-17T07:51:20.928Z,11.35
2019-05-17T07:53:51.914Z,11.30
2019-05-17T07:56:22.865Z,11.50
2019-05-17T07:58:53.855Z,12.88
2019-05-17T08:01:24.798Z,12.90
2019-05-17T08:03:55.801Z,12.33
2019-05-17T08:06:26.752Z,14.10
2019-05-17T08:09:03.898Z,13.08
2019-05-17T08:11:33.150Z,13.50
2019-05-17T08:14:04.126Z,15.60
2019-05-17T08:16:35.079Z,12.53
2019-05-17T08:19:06.058Z,13.75
2019-05-17T08:21:39.603Z,12.00
2019-05-17T08:24:10.462Z,11.80
2019-05-17T08:26:41.533Z,12.47
2019-05-17T08:29:12.513Z,12.70
2019-05-17T08:31:43.460Z,12.18
2019-05-17T08:34:14.482Z,12.20
2019-05-17T08:36:45.440Z,11.53
2019-05-17T08:39:16.426Z,13.30
2019-05-17T08:41:49.635Z,12.93
2019-05-17T08:44:20.058Z,11.95
2019-05-17T08:46:51.013Z,11.75
2019-05-17T08:49:22.003Z,12.58
2019-05-17T08:51:52.952Z,10.93
2019-05-17T08:54:23.937Z,12.82
2019-05-17T08:56:54.885Z,11.97
2019-05-17T08:59:25.873Z,11.15
2019-05-17T09:01:56.822Z,13.50
2019-05-17T09:04:29.753Z,12.15
2019-05-17T09:07:03.161Z,12.33
2019-05-17T09:09:33.138Z,10.90
2019-05-17T09:12:04.118Z,10.23
2019-05-17T09:14:35.102Z,9.95
2019-05-17T09:17:06.089Z,10.38
2019-05-17T09:19:39.365Z,11.85
2019-05-17T09:22:10.429Z,12.35
2019-05-17T09:24:41.636Z,10.70
2019-05-17T09:27:12.621Z,9.25
2019-05-17T09:29:43.568Z,10.53
2019-05-17T09:32:14.570Z,10.60
2019-05-17T09:34:45.569Z,9.23
2019-05-17T09:37:19.056Z,9.73
2019-05-17T09:39:49.376Z,8.95
2019-05-17T09:42:21.075Z,8.35
2019-05-17T09:44:52.183Z,9.53
2019-05-17T09:47:23.172Z,8.33
2019-05-17T09:49:55.263Z,8.23
2019-05-17T09:52:26.240Z,7.40
2019-05-17T09:54:57.297Z,133.87
2019-05-17T09:57:29.830Z,9.98
2019-05-17T10:00:01.006Z,9.00
2019-05-17T10:02:33.530Z,7.90
2019-05-17T10:05:06.713Z,7.47
2019-05-17T10:07:39.977Z,6.00
2019-05-17T10:10:10.927Z,5.87
2019-05-17T10:12:41.926Z,5.27
2019-05-17T10:15:12.898Z,5.40
2019-05-17T10:17:43.841Z,5.73
2019-05-17T10:20:15.673Z,5.33
2019-05-17T10:22:46.609Z,5.23
2019-05-17T10:25:19.971Z,5.53
2019-05-17T10:27:50.349Z,6.50
2019-05-17T10:30:21.349Z,6.33
2019-05-17T10:32:52.376Z,5.20
2019-05-17T10:35:23.351Z,5.50
2019-05-17T10:37:54.292Z,6.83
2019-05-17T10:40:25.551Z,4.70
2019-05-17T10:42:56.490Z,8.07
2019-05-17T10:45:27.463Z,5.33
2019-05-17T10:48:00.626Z,5.30
2019-05-17T10:50:31.099Z,7.13
2019-05-17T10:53:02.135Z,4.80
2019-05-17T10:55:33.108Z,4.83
2019-05-17T10:58:04.056Z,41.90
2019-05-17T11:00:35.041Z,4.53
2019-05-17T11:03:06.109Z,4.67
2019-05-17T11:05:39.909Z,4.50
2019-05-17T11:08:10.731Z,3.70
2019-05-17T11:10:41.980Z,3.27
2019-05-17T11:13:13.926Z,3.43
2019-05-17T11:15:45.890Z,3.70
2019-05-17T11:18:16.843Z,3.60
2019-05-17T11:20:47.805Z,3.10
2019-05-17T11:23:18.744Z,2.63
2019-05-17T11:25:49.727Z,3.40
2019-05-17T11:28:20.745Z,2.73
2019-05-17T11:30:51.716Z,9.00
2019-05-17T11:33:22.702Z,8.93
2019-05-17T11:35:54.188Z,3.50
2019-05-17T11:38:25.156Z,2.93
2019-05-17T11:40:56.195Z,3.27
2019-05-17T11:43:27.186Z,2.63
2019-05-17T11:45:58.175Z,2.50
2019-05-17T11:48:30.262Z,4.47
2019-05-17T11:51:01.198Z,4.90
2019-05-17T11:53:32.174Z,3.37
2019-05-17T11:56:03.118Z,2.07
2019-05-17T11:58:34.089Z,2.07
2019-05-17T12:01:05.136Z,2.97
2019-05-17T12:03:36.122Z,2.80
2019-05-17T12:06:07.063Z,8.33
2019-05-17T12:08:38.235Z,4.73
2019-05-17T12:11:09.220Z,2.83
2019-05-17T12:13:43.383Z,3.00
2019-05-17T12:16:12.890Z,3.40
2019-05-17T12:18:43.863Z,4.50
2019-05-17T12:21:14.936Z,2.43
2019-05-17T12:23:45.889Z,3.00
2019-05-17T12:26:16.860Z,2.57
2019-05-17T12:28:47.795Z,2.70
2019-05-17T12:31:18.768Z,2.30
2019-05-17T12:33:50.726Z,2.27
2019-05-17T12:36:21.848Z,2.70
2019-05-17T12:38:52.880Z,2.20
2019-05-17T12:41:23.904Z,2.17
2019-05-17T12:43:54.850Z,2.97
2019-05-17T12:46:26.817Z,5.07
2019-05-17T12:48:57.760Z,2.07
2019-05-17T12:51:32.884Z,2.50
2019-05-17T12:54:02.956Z,3.17
2019-05-17T12:56:34.001Z,1.80
2019-05-17T12:59:05.206Z,2.03
2019-05-17T13:01:36.171Z,1.33
2019-05-17T13:04:07.119Z,1.80
2019-05-17T13:06:38.094Z,0.87
2019-05-17T13:09:09.149Z,1.40
2019-05-17T13:11:40.121Z,2.17
2019-05-17T13:14:11.061Z,1.27
2019-05-17T13:16:42.035Z,1.43
2019-05-17T13:19:12.990Z,1.07
2019-05-17T13:21:43.968Z,1.60
2019-05-17T13:24:14.918Z,1.20
2019-05-17T13:26:45.888Z,1.20
2019-05-17T13:29:16.835Z,2.20
2019-05-17T13:31:47.809Z,1.17
2019-05-17T13:34:18.774Z,0.90
2019-05-17T13:36:49.758Z,1.27
2019-05-17T13:39:20.697Z,1.10
2019-05-17T13:41:51.675Z,25.43
2019-05-17T13:44:22.628Z,2.13
2019-05-17T13:46:53.588Z,1.30
2019-05-17T13:49:24.539Z,2.20
2019-05-17T13:51:55.516Z,1.73
2019-05-17T13:54:26.560Z,2.30
2019-05-17T13:56:57.572Z,2.10
2019-05-17T13:59:28.550Z,2.33
2019-05-17T14:01:59.565Z,1.97
2019-05-17T14:04:30.546Z,2.40
2019-05-17T14:07:01.484Z,1.20
2019-05-17T14:09:32.460Z,0.90
2019-05-17T14:12:03.424Z,5.27
2019-05-17T14:14:34.465Z,9.27
2019-05-17T14:17:05.904Z,1.30
2019-05-17T14:19:36.876Z,1.23
2019-05-17T14:22:07.822Z,9.90
2019-05-17T14:24:38.807Z,17.67
2019-05-17T14:27:09.753Z,10.37
2019-05-17T14:29:40.795Z,21.73
2019-05-17T14:32:12.311Z,4.93
2019-05-17T14:34:43.554Z,1.93
2019-05-17T14:37:14.508Z,3.07
2019-05-17T14:39:45.484Z,4.27
2019-05-17T14:42:16.431Z,6.60
2019-05-17T14:44:47.403Z,3.00
2019-05-17T14:47:18.337Z,1.83
2019-05-17T14:49:51.206Z,1.60
2019-05-17T14:52:21.978Z,1.50
2019-05-17T14:54:52.955Z,9.37
2019-05-17T14:57:23.940Z,1.33
2019-05-17T14:59:54.911Z,1.93
2019-05-17T15:02:25.935Z,1.43
2019-05-17T15:04:57.006Z,6.70
2019-05-17T15:07:28.050Z,9.67
2019-05-17T15:09:58.999Z,9.00
2019-05-17T15:12:29.993Z,6.53
2019-05-17T15:15:00.938Z,2.63
2019-05-17T15:17:34.989Z,2.70
2019-05-17T15:20:06.650Z,6.40
2019-05-17T15:22:37.624Z,1.70
2019-05-17T15:25:08.760Z,1.30
2019-05-17T15:27:39.727Z,3.47
2019-05-17T15:30:11.370Z,1.40
2019-05-17T15:32:42.353Z,13.27
2019-05-17T15:35:13.345Z,6.90
2019-05-17T15:37:44.320Z,2.97
2019-05-17T15:40:15.776Z,2.90
2019-05-17T15:42:46.757Z,1.90
2019-05-17T15:45:17.802Z,2.87
2019-05-17T15:47:48.775Z,1.27
2019-05-17T15:50:19.842Z,10.43
2019-05-17T15:52:50.824Z,3.50
2019-05-17T15:55:22.573Z,3.80
2019-05-17T15:57:53.812Z,1.13
2019-05-17T16:00:26.645Z,4.50
2019-05-17T16:02:57.619Z,1.87
2019-05-17T16:05:31.340Z,2.20
2019-05-17T16:10:51.151Z,1.37
2019-05-17T16:13:22.664Z,1.33
2019-05-17T16:15:53.978Z,3.03
2019-05-17T16:18:25.050Z,1.67
2019-05-17T16:20:56.395Z,1.30
2019-05-17T16:23:29.862Z,1.67
2019-05-17T16:26:00.831Z,1.40
2019-05-17T16:28:34.665Z,1.93
2019-05-17T16:31:05.917Z,2.00
2019-05-17T16:33:38.625Z,5.13
2019-05-17T16:36:09.622Z,2.00
2019-05-17T16:38:40.660Z,1.83
2019-05-17T16:41:11.679Z,1.47
2019-05-17T16:43:44.182Z,1.73
2019-05-17T16:46:15.197Z,2.30
2019-05-17T16:48:46.171Z,1.80
2019-05-17T16:51:17.258Z,2.33
2019-05-17T16:53:48.327Z,2.00
2019-05-17T16:56:19.377Z,10.30
2019-05-17T16:58:50.610Z,14.20
2019-05-17T17:01:23.232Z,1.67
2019-05-17T17:03:54.328Z,2.10
2019-05-17T17:06:25.635Z,9.30
2019-05-17T17:08:56.635Z,13.70
2019-05-17T17:11:27.826Z,2.90
2019-05-17T17:13:58.847Z,41.73
2019-05-17T17:16:29.821Z,3.10
2019-05-17T17:19:00.784Z,3.27
2019-05-17T17:21:31.759Z,2.10
2019-05-17T17:24:02.711Z,10.50
2019-05-17T17:26:33.689Z,2.97
2019-05-17T17:29:04.821Z,3.47
2019-05-17T17:31:36.069Z,2.80
2019-05-17T17:34:07.217Z,2.00
2019-05-17T17:36:38.472Z,2.97
2019-05-17T17:39:09.707Z,27.70
2019-05-17T17:41:40.941Z,3.80
2019-05-17T17:44:12.177Z,7.87
2019-05-17T17:46:43.403Z,4.20
2019-05-17T17:49:16.185Z,3.20
2019-05-17T17:51:47.708Z,7.57
2019-05-17T17:54:19.159Z,2.10
2019-05-17T17:56:50.437Z,5.87
2019-05-17T17:59:24.273Z,2.70
2019-05-17T18:01:55.304Z,3.67
2019-05-17T18:04:26.539Z,2.10
2019-05-17T18:06:58.106Z,2.60
2019-05-17T18:09:29.160Z,5.33
2019-05-17T18:12:00.107Z,2.50
2019-05-17T18:14:31.185Z,3.00
2019-05-17T18:17:02.139Z,5.70
2019-05-17T18:19:33.157Z,3.10
2019-05-17T18:22:04.146Z,2.10
2019-05-17T18:24:35.144Z,8.30
2019-05-17T18:27:06.188Z,6.10
2019-05-17T18:29:37.185Z,12.23
2019-05-17T18:32:09.632Z,5.00
2019-05-17T18:34:40.976Z,14.50
2019-05-17T18:37:12.038Z,5.07
2019-05-17T18:39:43.010Z,3.53
2019-05-17T18:42:13.958Z,3.40
2019-05-17T18:44:44.934Z,4.53
2019-05-17T18:47:15.879Z,5.13
2019-05-17T18:49:46.951Z,6.60
2019-05-17T18:52:21.188Z,4.37
2019-05-17T18:54:52.170Z,5.67
2019-05-17T18:57:23.290Z,6.70
2019-05-17T18:59:54.236Z,6.93
2019-05-17T19:02:25.231Z,6.90
2019-05-17T19:04:56.194Z,5.20
2019-05-17T19:07:27.247Z,5.47
2019-05-17T19:09:58.214Z,4.80
2019-05-17T19:12:29.227Z,5.97
2019-05-17T19:15:00.810Z,5.10
2019-05-17T19:17:33.538Z,6.08
2019-05-17T19:20:06.308Z,5.40
2019-05-17T19:22:37.548Z,5.17
2019-05-17T19:25:10.764Z,5.45
2019-05-17T19:27:44.464Z,5.55
2019-05-17T19:30:17.340Z,5.47
2019-05-17T19:32:48.817Z,11.18
2019-05-17T19:35:20.377Z,14.50
2019-05-17T19:37:54.696Z,12.88
2019-05-17T19:40:25.954Z,4.67
2019-05-17T19:42:56.944Z,4.05
2019-05-17T19:45:27.960Z,3.60
2019-05-17T19:47:59.018Z,4.33
2019-05-17T19:50:30.047Z,5.30
2019-05-17T19:53:01.106Z,5.72
2019-05-17T19:55:33.396Z,5.15
2019-05-17T19:58:04.522Z,6.12
2019-05-17T20:00:35.725Z,9.48
2019-05-17T20:03:06.712Z,7.45
2019-05-17T20:05:37.709Z,14.70
2019-05-17T20:08:08.746Z,13.70
2019-05-17T20:10:39.689Z,6.85
2019-05-17T20:13:10.792Z,3.85
2019-05-17T20:15:43.324Z,5.92
2019-05-17T20:18:15.078Z,5.45
2019-05-17T20:20:46.017Z,6.90
2019-05-17T20:23:18.067Z,5.87
2019-05-17T20:25:49.236Z,5.45
2019-05-17T20:28:20.186Z,5.30
2019-05-17T20:30:54.991Z,6.70
2019-05-17T20:33:26.322Z,6.00
2019-05-17T20:35:57.338Z,6.58
2019-05-17T20:38:28.289Z,22.85
2019-05-17T20:40:59.271Z,9.15
2019-05-17T20:43:30.229Z,6.60
2019-05-17T20:46:01.294Z,10.13
2019-05-17T20:48:32.279Z,17.10
2019-05-17T20:51:03.382Z,18.45
2019-05-17T20:53:34.402Z,6.70
2019-05-17T20:56:06.595Z,40.83
2019-05-17T20:58:37.539Z,15.72
2019-05-17T21:01:08.594Z,5.83
2019-05-17T21:03:39.616Z,8.35
2019-05-17T21:06:12.007Z,5.65
2019-05-17T21:08:45.888Z,5.00
2019-05-17T21:11:16.730Z,11.65
2019-05-17T21:13:47.702Z,8.23
2019-05-17T21:16:18.684Z,5.87
2019-05-17T21:18:49.616Z,6.72
2019-05-17T21:21:20.601Z,6.37
2019-05-17T21:23:51.558Z,5.53
2019-05-17T21:26:22.601Z,5.50
2019-05-17T21:28:53.630Z,5.62
2019-05-17T21:31:24.781Z,5.37
2019-05-17T21:33:55.805Z,4.90
2019-05-17T21:36:26.949Z,4.70
2019-05-17T21:38:57.948Z,6.20
2019-05-17T21:41:28.920Z,7.72
2019-05-17T21:44:01.534Z,9.00
2019-05-17T21:46:32.478Z,8.43
2019-05-17T21:49:03.518Z,4.90
2019-05-17T21:51:34.468Z,5.35
2019-05-17T21:54:05.438Z,4.78
2019-05-17T21:56:36.429Z,6.30
2019-05-17T21:59:07.496Z,5.67
2019-05-17T22:01:38.433Z,6.17
2019-05-17T22:04:09.406Z,5.28
2019-05-17T22:06:40.637Z,5.58
2019-05-17T22:09:11.651Z,6.25
2019-05-17T22:11:44.817Z,6.67
2019-05-17T22:14:15.908Z,5.83
2019-05-17T22:16:46.842Z,6.40
2019-05-17T22:19:17.808Z,5.50
2019-05-17T22:21:48.760Z,5.58
2019-05-17T22:24:19.742Z,6.70
2019-05-17T22:26:50.670Z,7.15
2019-05-17T22:29:21.687Z,7.60
2019-05-17T22:31:52.756Z,10.68
2019-05-17T22:34:24.088Z,6.33
2019-05-17T22:36:55.140Z,10.00
2019-05-17T22:39:26.129Z,12.18
2019-05-17T22:41:57.340Z,7.85
2019-05-17T22:44:28.498Z,7.12
2019-05-17T22:47:08.687Z,11.90
2019-05-17T22:49:47.884Z,8.33
2019-05-17T22:52:19.604Z,6.85
2019-05-17T22:54:56.058Z,8.50
2019-05-17T22:57:35.422Z,5.85
2019-05-17T23:00:12.893Z,7.67
2019-05-17T23:02:50.433Z,6.90
2019-05-17T23:05:28.943Z,6.22
2019-05-17T23:08:17.878Z,6.75
2019-05-17T23:11:08.886Z,6.05
2019-05-17T23:13:48.288Z,6.33
2019-05-17T23:16:30.197Z,6.90
2019-05-17T23:19:08.935Z,8.60
2019-05-17T23:21:46.615Z,6.90
2019-05-17T23:24:19.051Z,7.65
2019-05-17T23:26:51.374Z,8.15
2019-05-17T23:29:36.896Z,7.92
2019-05-17T23:32:18.901Z,6.15
2019-05-17T23:35:12.309Z,6.55
2019-05-17T23:38:01.149Z,7.35
2019-05-17T23:40:33.541Z,7.37
2019-05-17T23:43:07.932Z,8.83
2019-05-17T23:45:42.790Z,7.35
2019-05-17T23:48:15.312Z,7.12
2019-05-17T23:50:56.856Z,6.67
2019-05-17T23:53:27.970Z,7.70
2019-05-17T23:55:59.938Z,7.35
2019-05-17T23:58:30.982Z,7.70
